Time;durP1;ratioP1;P1;durP2;ratioP2;P2;SDS_P1;SDS_P2;PMS_P1;PMS_P2;Temp;Humidity;BMP_temperature;BMP_pressure;BME280_temperature;BME280_humidity;BME280_pressure;Samples;Min_cycle;Max_cycle;Signal;HPM_P1;HPM_P2
2022/06/21 01:09:30;;;;;;;16.95;5.85;;;;;;;;;;7361212;19;20391;-73
2022/06/21 01:12:25;;;;;;;15.07;5.88;;;;;;;;;;7361336;19;20342;-73
2022/06/21 01:14:54;;;;;;;8.60;4.75;;;;;;;;;;7374297;19;20019;-73
2022/06/21 01:17:20;;;;;;;12.30;4.93;;;;;;;;;;7380851;19;20473;-73
2022/06/21 01:19:51;;;;;;;12.80;4.32;;;;;;;;;;7377085;19;20006;-73
2022/06/21 01:22:30;;;;;;;10.18;5.00;;;;;;;;;;7386148;19;20014;-73
2022/06/21 01:24:58;;;;;;;10.15;4.78;;;;;;;;;;7377147;19;20010;-74
2022/06/21 01:27:23;;;;;;;10.70;4.90;;;;;;;;;;7386076;19;20026;-73
2022/06/21 01:29:50;;;;;;;12.38;5.80;;;;;;;;;;7373462;19;20050;-73
2022/06/21 01:32:16;;;;;;;17.02;6.15;;;;;;;;;;7384276;19;20002;-73
2022/06/21 01:34:42;;;;;;;17.10;5.80;;;;;;;;;;7381700;19;20013;-73
2022/06/21 01:37:18;;;;;;;11.38;4.75;;;;;;;;;;7386567;19;20014;-74
2022/06/21 01:39:53;;;;;;;15.52;5.18;;;;;;;;;;7383081;19;20011;-73
2022/06/21 01:42:18;;;;;;;11.75;5.15;;;;;;;;;;7379485;19;20010;-73
2022/06/21 01:44:46;;;;;;;9.88;5.13;;;;;;;;;;7379136;19;20010;-73
2022/06/21 01:47:16;;;;;;;10.45;4.80;;;;;;;;;;7377899;19;20007;-73
2022/06/21 01:49:45;;;;;;;12.27;5.53;;;;;;;;;;7377559;19;19999;-73
2022/06/21 01:52:13;;;;;;;11.85;5.53;;;;;;;;;;7377444;19;20073;-73
2022/06/21 01:54:42;;;;;;;8.77;4.90;;;;;;;;;;7383418;19;20023;-73
2022/06/21 01:57:08;;;;;;;14.18;5.35;;;;;;;;;;7382589;19;20015;-73
2022/06/21 01:59:36;;;;;;;10.88;5.72;;;;;;;;;;7378379;19;20003;-73
2022/06/21 02:02:04;;;;;;;11.27;5.57;;;;;;;;;;7371055;19;20027;-73
2022/06/21 02:04:31;;;;;;;12.45;5.93;;;;;;;;;;7381358;19;20043;-73
2022/06/21 02:07:00;;;;;;;16.85;5.50;;;;;;;;;;7377923;19;20018;-73
2022/06/21 02:09:29;;;;;;;15.02;5.93;;;;;;;;;;7379297;19;20350;-74
2022/06/21 02:12:09;;;;;;;12.55;5.70;;;;;;;;;;7381331;19;20006;-74
2022/06/21 02:14:37;;;;;;;13.77;5.72;;;;;;;;;;7376426;19;20018;-73
2022/06/21 02:17:11;;;;;;;11.50;5.50;;;;;;;;;;7381481;19;20010;-73
2022/06/21 02:19:38;;;;;;;10.93;5.43;;;;;;;;;;7377296;19;20023;-74
2022/06/21 02:22:03;;;;;;;14.25;6.00;;;;;;;;;;7382413;19;20073;-73
2022/06/21 02:24:30;;;;;;;12.73;5.95;;;;;;;;;;7382270;19;20569;-73
2022/06/21 02:26:56;;;;;;;13.10;6.15;;;;;;;;;;7382118;19;20020;-73
2022/06/21 02:29:21;;;;;;;15.60;5.22;;;;;;;;;;7375024;19;20461;-73
2022/06/21 02:31:46;;;;;;;15.17;5.57;;;;;;;;;;7375478;19;20014;-74
2022/06/21 02:34:16;;;;;;;12.50;6.15;;;;;;;;;;7381117;19;20581;-74
2022/06/21 02:36:46;;;;;;;10.68;5.53;;;;;;;;;;7381830;19;20026;-74
2022/06/21 02:39:14;;;;;;;12.80;5.22;;;;;;;;;;7380183;19;20488;-73
2022/06/21 02:41:40;;;;;;;17.60;6.57;;;;;;;;;;7378158;19;20022;-74
2022/06/21 02:44:23;;;;;;;13.85;6.47;;;;;;;;;;7375675;19;19999;-73
2022/06/21 02:46:53;;;;;;;14.55;6.45;;;;;;;;;;7378694;19;20026;-73
2022/06/21 02:49:20;;;;;;;14.43;6.97;;;;;;;;;;7381695;19;20005;-73
2022/06/21 02:51:48;;;;;;;16.80;7.35;;;;;;;;;;7378016;19;20010;-74
2022/06/21 02:54:19;;;;;;;20.70;6.43;;;;;;;;;;7378498;19;20018;-74
2022/06/21 02:56:47;;;;;;;14.30;6.72;;;;;;;;;;7379547;19;20584;-73
2022/06/21 02:59:13;;;;;;;14.30;7.00;;;;;;;;;;7375851;19;20018;-72
2022/06/21 03:01:44;;;;;;;12.70;7.25;;;;;;;;;;7370125;19;20003;-73
2022/06/21 03:04:16;;;;;;;34.50;6.45;;;;;;;;;;7382402;19;20021;-73
2022/06/21 03:06:41;;;;;;;8.82;5.20;;;;;;;;;;7379666;19;20503;-73
2022/06/21 03:09:08;;;;;;;14.10;5.03;;;;;;;;;;7373820;19;20426;-74
2022/06/21 03:11:38;;;;;;;9.50;5.38;;;;;;;;;;7377676;19;20006;-73
2022/06/21 03:14:05;;;;;;;11.05;5.88;;;;;;;;;;7375103;19;20440;-73
2022/06/21 03:16:31;;;;;;;12.27;5.93;;;;;;;;;;7376005;19;20010;-73
2022/06/21 03:18:58;;;;;;;15.88;5.72;;;;;;;;;;7378517;19;20062;-73
2022/06/21 03:21:28;;;;;;;14.93;6.50;;;;;;;;;;7380471;19;20001;-73
2022/06/21 03:23:53;;;;;;;14.88;7.57;;;;;;;;;;7378528;19;20038;-73
2022/06/21 03:26:19;;;;;;;14.95;7.45;;;;;;;;;;7375695;19;20363;-73
2022/06/21 03:28:45;;;;;;;14.98;7.53;;;;;;;;;;7377690;19;20121;-73
2022/06/21 03:31:13;;;;;;;14.73;7.05;;;;;;;;;;7372452;19;20006;-72
2022/06/21 03:33:40;;;;;;;13.05;6.55;;;;;;;;;;7379489;19;20441;-72
2022/06/21 03:36:07;;;;;;;8.50;4.85;;;;;;;;;;7377969;19;20010;-72
2022/06/21 03:38:33;;;;;;;13.30;5.75;;;;;;;;;;7379251;19;20071;-72
2022/06/21 03:43:46;;;;;;;11.75;5.45;;;;;;;;;;7379304;19;20035;-72
2022/06/21 03:46:13;;;;;;;11.48;5.60;;;;;;;;;;7372798;19;20050;-72
2022/06/21 03:49:07;;;;;;;13.35;5.88;;;;;;;;;;7378222;19;20126;-72
2022/06/21 03:51:32;;;;;;;;;;;;;;;;;;7376756;19;20011;-72
2022/06/21 03:54:06;;;;;;;13.13;5.65;;;;;;;;;;7374728;19;20382;-72
2022/06/21 03:56:37;;;;;;;14.95;5.40;;;;;;;;;;7379971;19;20028;-72
2022/06/21 03:59:08;;;;;;;11.38;5.63;;;;;;;;;;7375072;19;20441;-72
2022/06/21 04:01:43;;;;;;;9.50;5.53;;;;;;;;;;7372332;19;20042;-73
2022/06/21 04:04:15;;;;;;;11.35;5.18;;;;;;;;;;7380282;19;20022;-73
2022/06/21 04:06:54;;;;;;;12.75;5.68;;;;;;;;;;7379575;19;20007;-74
2022/06/21 04:09:23;;;;;;;19.75;4.85;;;;;;;;;;7376579;19;20077;-72
2022/06/21 04:11:58;;;;;;;11.35;6.20;;;;;;;;;;7366000;19;19999;-71
2022/06/21 04:14:26;;;;;;;15.60;6.28;;;;;;;;;;7375489;19;20015;-72
2022/06/21 04:17:03;;;;;;;9.50;5.38;;;;;;;;;;7378700;19;20757;-71
2022/06/21 04:19:28;;;;;;;9.65;5.40;;;;;;;;;;7379688;19;20007;-72
2022/06/21 04:21:58;;;;;;;14.05;6.47;;;;;;;;;;7378155;19;20003;-73
2022/06/21 04:24:31;;;;;;;13.07;6.15;;;;;;;;;;7375871;19;20014;-72
2022/06/21 04:27:01;;;;;;;11.98;6.35;;;;;;;;;;7378581;19;20019;-73
2022/06/21 04:29:38;;;;;;;11.15;5.45;;;;;;;;;;7374221;19;20018;-73
2022/06/21 04:32:22;;;;;;;10.32;5.60;;;;;;;;;;7379062;19;20576;-73
2022/06/21 04:34:51;;;;;;;14.75;5.57;;;;;;;;;;7378833;19;20003;-72
2022/06/21 04:37:31;;;;;;;12.27;5.15;;;;;;;;;;7383761;19;20489;-73
2022/06/21 04:40:03;;;;;;;11.85;5.07;;;;;;;;;;7378904;19;20003;-73
2022/06/21 04:42:31;;;;;;;12.63;5.07;;;;;;;;;;7386932;19;20343;-72
2022/06/21 04:45:01;;;;;;;14.05;5.07;;;;;;;;;;7377181;19;20006;-73
2022/06/21 04:47:30;;;;;;;12.43;5.03;;;;;;;;;;7387747;19;19999;-73
2022/06/21 04:50:01;;;;;;;9.65;4.88;;;;;;;;;;7384210;19;20045;-73
2022/06/21 04:52:39;;;;;;;11.75;5.28;;;;;;;;;;7386468;19;20438;-73
2022/06/21 04:55:05;;;;;;;12.77;5.18;;;;;;;;;;7385382;19;20013;-73
2022/06/21 04:57:31;;;;;;;12.27;5.20;;;;;;;;;;7384289;19;20386;-73
2022/06/21 05:00:00;;;;;;;11.32;5.32;;;;;;;;;;7380763;19;20021;-73
2022/06/21 05:02:27;;;;;;;9.30;4.53;;;;;;;;;;7381980;19;20039;-73
2022/06/21 05:04:57;;;;;;;12.55;5.10;;;;;;;;;;7383497;19;20029;-73
2022/06/21 05:07:24;;;;;;;10.13;4.90;;;;;;;;;;7385950;19;20006;-73
2022/06/21 05:09:50;;;;;;;9.55;4.90;;;;;;;;;;7378458;19;20018;-73
2022/06/21 05:12:33;;;;;;;9.40;5.07;;;;;;;;;;7382437;19;20006;-72
2022/06/21 05:15:00;;;;;;;12.20;5.13;;;;;;;;;;7381160;19;20019;-73
2022/06/21 05:17:26;;;;;;;9.52;4.57;;;;;;;;;;7382902;19;20010;-72
2022/06/21 05:19:56;;;;;;;8.57;4.38;;;;;;;;;;7384435;19;20043;-73
2022/06/21 05:22:30;;;;;;;9.43;4.68;;;;;;;;;;7379398;19;19998;-73
2022/06/21 05:24:55;;;;;;;12.23;4.87;;;;;;;;;;7382109;19;20377;-73
2022/06/21 05:27:40;;;;;;;9.75;4.65;;;;;;;;;;7384211;19;20232;-73
2022/06/21 05:30:10;;;;;;;12.88;4.63;;;;;;;;;;7375493;19;20009;-73
2022/06/21 05:32:42;;;;;;;13.93;5.05;;;;;;;;;;7382374;19;20031;-74
2022/06/21 05:35:18;;;;;;;16.33;5.55;;;;;;;;;;7377431;19;20005;-74
2022/06/21 05:37:49;;;;;;;11.57;4.82;;;;;;;;;;7367270;19;20017;-74
2022/06/21 05:40:18;;;;;;;13.45;5.07;;;;;;;;;;7375181;19;20010;-73
2022/06/21 05:42:44;;;;;;;12.90;5.28;;;;;;;;;;7378904;19;20752;-74
2022/06/21 05:45:12;;;;;;;9.68;5.00;;;;;;;;;;7380798;19;20014;-74
2022/06/21 05:47:39;;;;;;;13.70;5.00;;;;;;;;;;7382945;19;20328;-74
2022/06/21 05:50:06;;;;;;;15.07;4.88;;;;;;;;;;7385116;19;20001;-74
2022/06/21 05:52:37;;;;;;;11.60;4.50;;;;;;;;;;7374618;19;20608;-74
2022/06/21 05:55:13;;;;;;;13.88;4.85;;;;;;;;;;7381814;19;20517;-75
2022/06/21 05:57:41;;;;;;;9.93;5.15;;;;;;;;;;7380458;19;20046;-74
2022/06/21 06:00:13;;;;;;;15.23;4.82;;;;;;;;;;7381325;19;20038;-74
2022/06/21 06:02:42;;;;;;;15.40;4.50;;;;;;;;;;7383037;19;20438;-73
2022/06/21 06:05:20;;;;;;;14.57;4.72;;;;;;;;;;7377262;19;20014;-74
2022/06/21 06:07:49;;;;;;;16.10;4.93;;;;;;;;;;7383787;19;19998;-75
2022/06/21 06:10:16;;;;;;;21.45;5.70;;;;;;;;;;7382214;19;20014;-74
2022/06/21 06:12:43;;;;;;;11.43;4.28;;;;;;;;;;7380761;19;20021;-74
2022/06/21 06:15:14;;;;;;;16.35;4.85;;;;;;;;;;7378473;19;20406;-75
2022/06/21 06:17:47;;;;;;;12.75;4.15;;;;;;;;;;7383595;19;20023;-74
2022/06/21 06:20:31;;;;;;;12.05;4.35;;;;;;;;;;7383922;19;20031;-74
2022/06/21 06:22:59;;;;;;;10.40;4.32;;;;;;;;;;7383236;19;20018;-75
2022/06/21 06:25:36;;;;;;;9.07;3.92;;;;;;;;;;7381929;19;20066;-75
2022/06/21 06:28:13;;;;;;;12.13;4.40;;;;;;;;;;7383817;19;20023;-75
2022/06/21 06:30:51;;;;;;;12.13;3.50;;;;;;;;;;7378896;19;20010;-73
2022/06/21 06:33:25;;;;;;;13.35;3.97;;;;;;;;;;7383168;19;20501;-76
2022/06/21 06:35:51;;;;;;;11.27;3.80;;;;;;;;;;7383936;19;20449;-74
2022/06/21 06:38:17;;;;;;;10.75;3.67;;;;;;;;;;7378822;19;20014;-74
2022/06/21 06:40:48;;;;;;;12.43;4.50;;;;;;;;;;7381436;19;20025;-74
2022/06/21 06:43:17;;;;;;;13.85;4.40;;;;;;;;;;7384381;19;20473;-74
2022/06/21 06:45:42;;;;;;;9.82;3.95;;;;;;;;;;7378093;19;20015;-74
2022/06/21 06:48:18;;;;;;;13.75;3.70;;;;;;;;;;7385169;19;20094;-73
2022/06/21 06:50:46;;;;;;;10.98;3.63;;;;;;;;;;7382256;19;20033;-75
2022/06/21 06:53:30;;;;;;;11.88;3.85;;;;;;;;;;7381445;19;20313;-74
2022/06/21 06:56:08;;;;;;;15.85;4.15;;;;;;;;;;7382499;19;20035;-75
2022/06/21 06:58:37;;;;;;;11.50;3.80;;;;;;;;;;7380446;19;19995;-75
2022/06/21 07:01:13;;;;;;;11.70;4.25;;;;;;;;;;7379745;19;20346;-75
2022/06/21 07:03:41;;;;;;;7.65;3.67;;;;;;;;;;7379530;19;20062;-73
2022/06/21 07:06:06;;;;;;;13.00;3.80;;;;;;;;;;7383462;19;20014;-73
2022/06/21 07:08:50;;;;;;;11.85;3.60;;;;;;;;;;7378342;19;20009;-74
2022/06/21 07:11:24;;;;;;;11.57;3.75;;;;;;;;;;7383266;19;20351;-76
2022/06/21 07:13:49;;;;;;;9.75;3.53;;;;;;;;;;7382524;19;20034;-75
2022/06/21 07:16:17;;;;;;;12.02;3.95;;;;;;;;;;7379271;19;20021;-75
2022/06/21 07:18:45;;;;;;;13.85;3.88;;;;;;;;;;7379960;19;20017;-76
2022/06/21 07:21:10;;;;;;;11.38;3.85;;;;;;;;;;7381760;19;20010;-75
2022/06/21 07:23:35;;;;;;;13.10;3.90;;;;;;;;;;7380602;19;20019;-74
2022/06/21 07:26:01;;;;;;;11.43;3.53;;;;;;;;;;7380933;19;20228;-75
2022/06/21 07:28:44;;;;;;;15.85;3.60;;;;;;;;;;7379259;19;20319;-75
2022/06/21 07:31:21;;;;;;;9.68;3.65;;;;;;;;;;7377905;19;20095;-74
2022/06/21 07:33:52;;;;;;;14.50;4.43;;;;;;;;;;7380282;19;20006;-75
2022/06/21 07:36:26;;;;;;;10.52;3.88;;;;;;;;;;7382705;19;20062;-76
2022/06/21 07:38:54;;;;;;;11.60;3.72;;;;;;;;;;7377976;19;20018;-74
2022/06/21 07:41:40;;;;;;;11.02;4.43;;;;;;;;;;7382296;19;20006;-75
2022/06/21 07:44:09;;;;;;;11.95;3.85;;;;;;;;;;7376930;19;20457;-75
2022/06/21 07:46:38;;;;;;;7.07;3.10;;;;;;;;;;7381849;19;20047;-74
2022/06/21 07:49:14;;;;;;;13.85;3.88;;;;;;;;;;7381714;19;20027;-76
2022/06/21 07:51:42;;;;;;;12.20;3.75;;;;;;;;;;7380344;19;20014;-76
2022/06/21 07:54:20;;;;;;;9.18;3.40;;;;;;;;;;7377966;19;20011;-75
2022/06/21 07:56:52;;;;;;;11.50;3.92;;;;;;;;;;7381248;19;20021;-74
2022/06/21 07:59:20;;;;;;;9.32;3.58;;;;;;;;;;7378162;19;20010;-74
2022/06/21 08:07:30;;;;;;;10.40;2.97;;;;;;;;;;7380544;19;20014;-73
2022/06/21 08:10:04;;;;;;;11.73;3.58;;;;;;;;;;7387249;19;20370;-74
2022/06/21 08:12:30;;;;;;;10.70;3.67;;;;;;;;;;7393710;19;20010;-74
2022/06/21 08:14:55;;;;;;;7.75;3.22;;;;;;;;;;7390644;19;20010;-74
2022/06/21 08:17:38;;;;;;;12.23;4.15;;;;;;;;;;7392786;19;20473;-77
2022/06/21 08:20:18;;;;;;;10.88;3.70;;;;;;;;;;7392916;19;20015;-76
2022/06/21 08:22:43;;;;;;;10.48;3.50;;;;;;;;;;7391975;19;20070;-75
2022/06/21 08:25:26;;;;;;;11.07;3.60;;;;;;;;;;7395944;19;20381;-75
2022/06/21 08:27:57;;;;;;;10.45;3.95;;;;;;;;;;7393738;19;20029;-75
2022/06/21 08:30:26;;;;;;;10.93;3.63;;;;;;;;;;7389320;19;20449;-74
2022/06/21 08:33:04;;;;;;;9.40;3.40;;;;;;;;;;7394324;19;20070;-75
2022/06/21 08:35:34;;;;;;;7.63;3.17;;;;;;;;;;7396952;19;20003;-75
2022/06/21 08:38:09;;;;;;;13.35;3.75;;;;;;;;;;7391123;19;19995;-74
2022/06/21 08:40:48;;;;;;;9.95;3.53;;;;;;;;;;7395482;19;20011;-75
2022/06/21 08:43:32;;;;;;;9.95;3.67;;;;;;;;;;7394890;19;20038;-75
2022/06/21 08:46:23;;;;;;;10.60;3.45;;;;;;;;;;7387873;19;20342;-75
2022/06/21 08:48:57;;;;;;;9.43;2.97;;;;;;;;;;7394111;19;20077;-75
2022/06/21 08:51:41;;;;;;;12.43;3.90;;;;;;;;;;7393277;19;20081;-75
2022/06/21 08:54:12;;;;;;;7.65;3.05;;;;;;;;;;7390823;19;20018;-75
2022/06/21 08:56:43;;;;;;;9.77;3.08;;;;;;;;;;7395025;19;20010;-75
2022/06/21 08:59:23;;;;;;;8.25;3.28;;;;;;;;;;7390526;19;20019;-75
2022/06/21 09:02:07;;;;;;;9.93;3.50;;;;;;;;;;7393611;19;20015;-76
2022/06/21 09:04:58;;;;;;;11.23;3.30;;;;;;;;;;7390248;19;20103;-75
2022/06/21 09:07:30;;;;;;;11.48;3.83;;;;;;;;;;7390754;19;20014;-75
2022/06/21 09:10:03;;;;;;;17.15;3.72;;;;;;;;;;7393578;19;20001;-75
2022/06/21 09:12:34;;;;;;;9.35;2.92;;;;;;;;;;7366007;19;20018;-74
2022/06/21 09:15:07;;;;;;;9.35;3.15;;;;;;;;;;7386456;19;20097;-76
2022/06/21 09:17:35;;;;;;;10.43;3.20;;;;;;;;;;7394803;19;20015;-75
2022/06/21 09:20:16;;;;;;;12.88;3.70;;;;;;;;;;7392872;19;20026;-75
2022/06/21 09:23:03;;;;;;;15.77;3.65;;;;;;;;;;7380120;19;20031;-76
2022/06/21 09:25:43;;;;;;;10.13;3.70;;;;;;;;;;7386351;19;20132;-76
2022/06/21 09:28:30;;;;;;;11.45;3.20;;;;;;;;;;7384938;19;20014;-75
2022/06/21 09:31:02;;;;;;;8.25;3.33;;;;;;;;;;7377150;19;20015;-77
2022/06/21 09:33:45;;;;;;;8.95;3.25;;;;;;;;;;7383839;19;20093;-75
2022/06/21 09:36:17;;;;;;;9.00;3.05;;;;;;;;;;7384877;19;20010;-75
2022/06/21 09:38:42;;;;;;;9.75;3.08;;;;;;;;;;7378356;19;20014;-75
2022/06/21 09:41:12;;;;;;;11.47;3.03;;;;;;;;;;7384978;19;20045;-75
2022/06/21 09:43:46;;;;;;;11.38;3.10;;;;;;;;;;7386148;19;20031;-75
2022/06/21 09:46:29;;;;;;;9.20;2.67;;;;;;;;;;7382321;19;20475;-75
2022/06/21 09:49:08;;;;;;;8.75;3.00;;;;;;;;;;7383940;19;20018;-74
2022/06/21 09:51:46;;;;;;;7.35;2.90;;;;;;;;;;7381265;19;20017;-74
2022/06/21 09:54:17;;;;;;;14.88;3.58;;;;;;;;;;7383919;19;20355;-75
2022/06/21 09:56:48;;;;;;;11.82;3.17;;;;;;;;;;7386242;19;19998;-76
2022/06/21 09:59:31;;;;;;;8.93;3.05;;;;;;;;;;7381818;19;20332;-76
2022/06/21 10:02:03;;;;;;;12.13;2.97;;;;;;;;;;7384724;19;20006;-77
2022/06/21 10:04:37;;;;;;;7.95;2.63;;;;;;;;;;7364481;19;20010;-75
2022/06/21 10:07:13;;;;;;;10.35;2.80;;;;;;;;;;7372758;19;20477;-76
2022/06/21 10:09:41;;;;;;;7.15;2.53;;;;;;;;;;7382105;19;20504;-75
2022/06/21 10:12:44;;;;;;;11.02;3.25;;;;;;;;;;7382658;19;20417;-77
2022/06/21 10:15:11;;;;;;;9.23;1.80;;;;;;;;;;7376342;19;20014;-75
2022/06/21 10:17:51;;;;;;;9.45;2.30;;;;;;;;;;7372944;19;19998;-77
2022/06/21 10:20:31;;;;;;;8.52;2.33;;;;;;;;;;7380201;19;20017;-76
2022/06/21 10:23:10;;;;;;;9.73;2.47;;;;;;;;;;7382182;19;20462;-76
2022/06/21 10:25:47;;;;;;;9.40;2.53;;;;;;;;;;7378769;19;20206;-75
2022/06/21 10:28:12;;;;;;;9.50;2.45;;;;;;;;;;7382177;19;20041;-76
2022/06/21 10:30:53;;;;;;;5.40;2.17;;;;;;;;;;7375799;19;20109;-76
2022/06/21 10:33:36;;;;;;;9.38;2.53;;;;;;;;;;7378657;19;20561;-76
2022/06/21 10:36:13;;;;;;;6.65;2.83;;;;;;;;;;7384756;19;20019;-76
2022/06/21 10:38:38;;;;;;;7.82;2.40;;;;;;;;;;7378727;19;20569;-75
2022/06/21 10:41:07;;;;;;;8.93;2.53;;;;;;;;;;7383023;19;20006;-76
2022/06/21 10:43:58;;;;;;;8.70;2.42;;;;;;;;;;7383795;19;20247;-76
2022/06/21 10:46:29;;;;;;;9.88;2.50;;;;;;;;;;7380912;19;19998;-76
2022/06/21 10:49:20;;;;;;;6.53;2.10;;;;;;;;;;7380619;19;20011;-77
2022/06/21 10:51:58;;;;;;;8.90;2.58;;;;;;;;;;7379343;19;20294;-76
2022/06/21 10:54:40;;;;;;;6.82;2.25;;;;;;;;;;7376217;19;20013;-75
2022/06/21 10:57:14;;;;;;;6.97;2.22;;;;;;;;;;7383708;19;20022;-76
2022/06/21 11:02:48;;;;;;;7.60;1.90;;;;;;;;;;7382815;19;20015;-77
2022/06/21 11:05:22;;;;;;;6.53;1.85;;;;;;;;;;7379126;19;20011;-77
2022/06/21 11:08:01;;;;;;;5.55;1.83;;;;;;;;;;7380768;19;20082;-76
2022/06/21 11:10:34;;;;;;;6.90;2.28;;;;;;;;;;7379824;19;20469;-77
2022/06/21 11:13:06;;;;;;;7.00;1.83;;;;;;;;;;7381360;19;20022;-76
2022/06/21 11:15:40;;;;;;;7.47;1.70;;;;;;;;;;7374619;19;20466;-75
2022/06/21 11:18:05;;;;;;;5.43;1.63;;;;;;;;;;7379100;19;20011;-76
2022/06/21 11:20:34;;;;;;;7.40;2.23;;;;;;;;;;7376809;19;20010;-77
2022/06/21 11:23:05;;;;;;;5.60;1.80;;;;;;;;;;7354872;19;20656;-75
2022/06/21 11:25:32;;;;;;;7.38;2.25;;;;;;;;;;7379103;19;20475;-76
2022/06/21 11:27:58;;;;;;;5.70;2.25;;;;;;;;;;7379272;19;20006;-76
2022/06/21 11:30:39;;;;;;;6.40;2.60;;;;;;;;;;7363050;19;20034;-74
2022/06/21 11:33:11;;;;;;;5.38;1.90;;;;;;;;;;7381048;19;20247;-77
2022/06/21 11:35:54;;;;;;;5.68;1.95;;;;;;;;;;7382790;19;20018;-78
2022/06/21 11:38:32;;;;;;;10.63;2.08;;;;;;;;;;7382830;19;19999;-78
2022/06/21 11:41:04;;;;;;;9.75;2.85;;;;;;;;;;7380003;19;20023;-78
2022/06/21 11:43:50;;;;;;;7.70;2.13;;;;;;;;;;7379974;19;20018;-78
2022/06/21 11:46:25;;;;;;;4.97;1.73;;;;;;;;;;7377407;19;20339;-76
2022/06/21 11:49:02;;;;;;;8.63;2.53;;;;;;;;;;7381875;19;20015;-76
2022/06/21 11:51:36;;;;;;;8.70;2.50;;;;;;;;;;7381495;19;20320;-76
2022/06/21 11:54:10;;;;;;;6.68;2.55;;;;;;;;;;7377076;19;20010;-78
2022/06/21 11:56:43;;;;;;;7.57;2.40;;;;;;;;;;7382650;19;20009;-76
2022/06/21 11:59:16;;;;;;;8.40;2.70;;;;;;;;;;7374995;19;20046;-78
2022/06/21 12:01:44;;;;;;;6.05;2.30;;;;;;;;;;7382383;19;20001;-76
2022/06/21 12:04:19;;;;;;;13.98;2.60;;;;;;;;;;7380575;19;20350;-77
2022/06/21 12:06:58;;;;;;;5.78;2.08;;;;;;;;;;7381654;19;20002;-76
2022/06/21 12:09:42;;;;;;;6.43;2.28;;;;;;;;;;7378168;19;20018;-77
2022/06/21 12:12:07;;;;;;;;;;;;;;;;;;7380974;19;20053;-77
2022/06/21 12:14:44;;;;;;;8.65;2.80;;;;;;;;;;7378388;19;19918;-77
2022/06/21 12:17:21;;;;;;;11.60;2.85;;;;;;;;;;7380252;19;20025;-78
2022/06/21 12:19:49;;;;;;;8.27;2.63;;;;;;;;;;7377621;19;20022;-77
2022/06/21 12:22:20;;;;;;;9.30;2.65;;;;;;;;;;7378043;19;20350;-77
2022/06/21 12:24:47;;;;;;;8.30;2.80;;;;;;;;;;7380442;19;20014;-76
2022/06/21 12:27:12;;;;;;;7.53;2.80;;;;;;;;;;7382183;19;20003;-77
2022/06/21 12:29:37;;;;;;;7.60;2.53;;;;;;;;;;7376043;19;20858;-78
2022/06/21 12:32:05;;;;;;;8.30;2.78;;;;;;;;;;7378357;19;20011;-77
2022/06/21 12:34:33;;;;;;;11.30;3.33;;;;;;;;;;7380299;19;19999;-77
2022/06/21 12:37:03;;;;;;;8.27;2.63;;;;;;;;;;7379044;19;20033;-78
2022/06/21 12:39:28;;;;;;;7.72;2.58;;;;;;;;;;7376779;19;20454;-78
2022/06/21 12:42:12;;;;;;;9.30;2.30;;;;;;;;;;7376790;19;20007;-78
2022/06/21 12:44:38;;;;;;;;;;;;;;;;;;7376906;19;20010;-78
2022/06/21 12:47:06;;;;;;;5.40;2.30;;;;;;;;;;7381190;19;19945;-78
2022/06/21 12:49:31;;;;;;;6.90;2.20;;;;;;;;;;7379784;19;20019;-78
2022/06/21 12:51:58;;;;;;;10.17;2.27;;;;;;;;;;7379381;19;20632;-78
2022/06/21 12:54:26;;;;;;;6.68;2.10;;;;;;;;;;7376447;19;20014;-78
2022/06/21 12:57:10;;;;;;;6.60;2.67;;;;;;;;;;7382753;19;20378;-78
2022/06/21 12:59:40;;;;;;;6.72;2.42;;;;;;;;;;7382740;19;20477;-76
2022/06/21 13:02:08;;;;;;;6.88;2.38;;;;;;;;;;7384587;19;20018;-75
2022/06/21 13:04:51;;;;;;;5.60;2.08;;;;;;;;;;7384727;19;20015;-79
2022/06/21 13:07:33;;;;;;;8.15;2.40;;;;;;;;;;7386504;19;20015;-78
2022/06/21 13:10:17;;;;;;;6.72;2.50;;;;;;;;;;7383783;19;20351;-75
2022/06/21 13:12:58;;;;;;;6.00;2.38;;;;;;;;;;7375100;19;20470;-77
2022/06/21 13:15:43;;;;;;;7.95;2.40;;;;;;;;;;7370885;19;20012;-76
2022/06/21 13:18:27;;;;;;;6.63;2.65;;;;;;;;;;7383272;19;20015;-76
2022/06/21 13:20:56;;;;;;;8.23;2.90;;;;;;;;;;7379718;19;20018;-77
2022/06/21 13:23:38;;;;;;;8.60;2.67;;;;;;;;;;7385725;19;20002;-77
2022/06/21 13:26:22;;;;;;;11.95;3.03;;;;;;;;;;7385858;19;20030;-79
2022/06/21 13:29:07;;;;;;;9.30;2.97;;;;;;;;;;7383905;19;20387;-77
2022/06/21 13:31:45;;;;;;;8.23;2.40;;;;;;;;;;7383290;19;20015;-78
2022/06/21 13:34:21;;;;;;;9.98;2.45;;;;;;;;;;7372713;19;20504;-78
2022/06/21 13:36:48;;;;;;;7.35;2.63;;;;;;;;;;7379534;19;20497;-77
2022/06/21 13:39:13;;;;;;;6.78;2.15;;;;;;;;;;7384299;19;20589;-80
2022/06/21 13:44:44;;;;;;;11.13;2.60;;;;;;;;;;7379178;19;20009;-81
2022/06/21 13:47:15;;;;;;;9.23;2.45;;;;;;;;;;7377213;19;20017;-82
2022/06/21 13:49:43;;;;;;;6.78;2.38;;;;;;;;;;7381724;19;20091;-78
2022/06/21 13:52:13;;;;;;;7.25;2.50;;;;;;;;;;7374211;19;20006;-80
2022/06/21 13:55:05;;;;;;;5.68;1.80;;;;;;;;;;7379494;19;20337;-78
2022/06/21 13:57:48;;;;;;;8.65;2.25;;;;;;;;;;7383885;19;20008;-78
2022/06/21 14:00:13;;;;;;;;;;;;;;;;;;7368489;19;20026;-76
2022/06/21 14:02:48;;;;;;;9.02;2.42;;;;;;;;;;7381588;19;19918;-80
2022/06/21 14:05:13;;;;;;;6.32;2.22;;;;;;;;;;7384828;19;20006;-77
2022/06/21 14:07:57;;;;;;;6.13;2.17;;;;;;;;;;7371760;19;20010;-80
2022/06/21 14:10:27;;;;;;;10.00;2.63;;;;;;;;;;7382610;19;20019;-77
2022/06/21 14:13:11;;;;;;;9.90;2.40;;;;;;;;;;7384445;19;20021;-80
2022/06/21 14:15:49;;;;;;;5.90;2.00;;;;;;;;;;7376819;19;20006;-78
2022/06/21 14:18:22;;;;;;;7.38;2.50;;;;;;;;;;7379405;19;20029;-80
2022/06/21 14:20:52;;;;;;;7.82;2.50;;;;;;;;;;7384627;19;20001;-79
2022/06/21 14:23:22;;;;;;;5.65;2.10;;;;;;;;;;7389204;19;20227;-81
2022/06/21 14:25:50;;;;;;;8.98;2.20;;;;;;;;;;7386526;19;20466;-80
2022/06/21 14:28:28;;;;;;;8.90;2.63;;;;;;;;;;7384167;19;20427;-80
2022/06/21 14:31:03;;;;;;;6.25;1.80;;;;;;;;;;7376631;19;20039;-77
2022/06/21 14:33:43;;;;;;;9.93;1.88;;;;;;;;;;7381517;19;20051;-80
2022/06/21 14:36:14;;;;;;;5.85;1.90;;;;;;;;;;7386187;19;20014;-81
2022/06/21 14:38:58;;;;;;;7.20;2.08;;;;;;;;;;7376433;19;20031;-75
2022/06/21 14:41:32;;;;;;;9.75;2.20;;;;;;;;;;7383594;19;20082;-82
2022/06/21 14:44:00;;;;;;;9.02;2.60;;;;;;;;;;7383051;19;20034;-81
2022/06/21 14:46:29;;;;;;;6.47;2.35;;;;;;;;;;7378401;19;20272;-82
2022/06/21 14:48:58;;;;;;;6.47;2.40;;;;;;;;;;7377639;19;20326;-78
2022/06/21 14:51:26;;;;;;;6.93;2.28;;;;;;;;;;7383815;19;20474;-79
2022/06/21 14:53:51;;;;;;;9.18;2.30;;;;;;;;;;7379756;19;20007;-79
2022/06/21 14:56:17;;;;;;;7.00;2.85;;;;;;;;;;7383154;19;20326;-77
2022/06/21 14:58:42;;;;;;;5.03;2.03;;;;;;;;;;7374500;19;20720;-82
2022/06/21 15:01:16;;;;;;;5.38;2.47;;;;;;;;;;7372405;19;19999;-81
2022/06/21 15:03:47;;;;;;;6.43;2.22;;;;;;;;;;7376380;19;20013;-82
2022/06/21 15:06:30;;;;;;;10.13;3.00;;;;;;;;;;7381320;19;20524;-79
2022/06/21 15:08:56;;;;;;;;;;;;;;;;;;7378031;19;20074;-78
2022/06/21 15:11:52;;;;;;;6.50;2.57;;;;;;;;;;7365093;19;20383;-82
2022/06/21 15:14:13;;;;;;;7.80;2.20;;;;;;;;;;7365089;19;20011;-78
2022/06/21 15:16:57;;;;;;;5.68;2.22;;;;;;;;;;7378589;19;20015;-81
2022/06/21 15:22:19;;;;;;;6.55;2.88;;;;;;;;;;7377729;19;20016;-80
2022/06/21 15:24:44;;;;;;;7.25;2.92;;;;;;;;;;7375870;19;20039;-81
2022/06/21 15:27:13;;;;;;;7.20;2.55;;;;;;;;;;7377007;19;20002;-81
2022/06/21 15:29:50;;;;;;;6.00;2.83;;;;;;;;;;7368932;19;20473;-81
2022/06/21 15:32:19;;;;;;;7.95;2.67;;;;;;;;;;7378319;19;20082;-82
2022/06/21 15:34:46;;;;;;;7.20;2.85;;;;;;;;;;7380814;19;20010;-80
2022/06/21 15:37:23;;;;;;;6.57;2.72;;;;;;;;;;7381656;19;20006;-79
2022/06/21 15:39:51;;;;;;;6.47;2.78;;;;;;;;;;7375559;19;20034;-84
2022/06/21 15:42:16;;;;;;;7.25;2.53;;;;;;;;;;7382730;19;20007;-83
2022/06/21 15:45:01;;;;;;;7.60;2.38;;;;;;;;;;7377505;19;20087;-81
2022/06/21 15:50:37;;;;;;;6.88;2.42;;;;;;;;;;7380283;19;20415;-79
2022/06/21 15:53:05;;;;;;;5.20;2.25;;;;;;;;;;7379971;19;20039;-84
2022/06/21 15:55:33;;;;;;;8.85;3.00;;;;;;;;;;7379155;19;20018;-80
2022/06/21 15:58:03;;;;;;;9.20;2.88;;;;;;;;;;7381032;19;20050;-84
2022/06/21 16:00:54;;;;;;;8.50;2.60;;;;;;;;;;7369154;19;20005;-80
2022/06/21 16:03:32;;;;;;;7.85;2.50;;;;;;;;;;7374965;19;20025;-79
2022/06/21 16:06:17;;;;;;;7.75;2.63;;;;;;;;;;7365157;19;20031;-81
2022/06/21 16:08:47;;;;;;;7.22;2.40;;;;;;;;;;7362929;19;20026;-78
2022/06/21 16:11:15;;;;;;;10.48;2.80;;;;;;;;;;7370687;19;20002;-82
2022/06/21 16:13:42;;;;;;;7.72;2.58;;;;;;;;;;7379577;19;20021;-78
2022/06/21 16:16:09;;;;;;;7.15;2.67;;;;;;;;;;7377418;19;20021;-82
2022/06/21 16:18:36;;;;;;;8.32;2.50;;;;;;;;;;7366043;19;20007;-82
2022/06/21 16:21:20;;;;;;;5.60;2.55;;;;;;;;;;7370300;19;20021;-84
2022/06/21 16:23:48;;;;;;;8.93;2.65;;;;;;;;;;7376257;19;20015;-81
2022/06/21 16:26:15;;;;;;;6.15;2.30;;;;;;;;;;7376419;19;20062;-84
2022/06/21 16:28:53;;;;;;;5.70;2.42;;;;;;;;;;7373618;19;20035;-83
2022/06/21 16:34:15;;;;;;;9.48;2.45;;;;;;;;;;7389792;19;20127;-82
2022/06/21 16:36:43;;;;;;;8.48;2.70;;;;;;;;;;7388282;19;20432;-81
2022/06/21 16:39:23;;;;;;;8.50;2.47;;;;;;;;;;7384718;19;20199;-81
2022/06/21 16:44:47;;;;;;;6.70;2.53;;;;;;;;;;7383881;19;19993;-85